sensor_id;sensor_type;location;lat;lon;timestamp;temperature;humidity
13944;DHT22;7044;53.286;8.534;2024-03-02T00:01:33;7.70;99.90
13944;DHT22;7044;53.286;8.534;2024-03-02T00:04:00;7.60;99.90
13944;DHT22;7044;53.286;8.534;2024-03-02T00:06:27;7.60;99.90
13944;DHT22;7044;53.286;8.534;2024-03-02T00:08:57;8.00;99.90
13944;DHT22;7044;53.286;8.534;2024-03-02T00:11:25;7.50;99.90
13944;DHT22;7044;53.286;8.534;2024-03-02T00:13:53;7.70;99.90
13944;DHT22;7044;53.286;8.534;2024-03-02T00:16:19;7.50;99.90
13944;DHT22;7044;53.286;8.534;2024-03-02T00:18:48;7.50;99.90
13944;DHT22;7044;53.286;8.534;2024-03-02T00:21:15;7.50;99.90
13944;DHT22;7044;53.286;8.534;2024-03-02T00:23:45;7.50;99.90
13944;DHT22;7044;53.286;8.534;2024-03-02T00:26:12;7.50;99.90
13944;DHT22;7044;53.286;8.534;2024-03-02T00:28:40;7.70;99.90
13944;DHT22;7044;53.286;8.534;2024-03-02T00:31:09;7.80;99.90
13944;DHT22;7044;53.286;8.534;2024-03-02T00:33:40;7.40;99.90
13944;DHT22;7044;53.286;8.534;2024-03-02T00:36:10;7.40;99.90
13944;DHT22;7044;53.286;8.534;2024-03-02T00:38:44;7.30;99.90
13944;DHT22;7044;53.286;8.534;2024-03-02T00:41:17;7.30;99.90
13944;DHT22;7044;53.286;8.534;2024-03-02T00:43:57;7.30;99.90
13944;DHT22;7044;53.286;8.534;2024-03-02T00:46:24;7.30;99.90
13944;DHT22;7044;53.286;8.534;2024-03-02T00:48:53;7.20;99.90
13944;DHT22;7044;53.286;8.534;2024-03-02T00:51:22;7.20;99.90
13944;DHT22;7044;53.286;8.534;2024-03-02T00:53:50;7.20;99.90
13944;DHT22;7044;53.286;8.534;2024-03-02T00:56:18;7.20;99.90
13944;DHT22;7044;53.286;8.534;2024-03-02T00:58:45;7.00;99.90
13944;DHT22;7044;53.286;8.534;2024-03-02T01:01:12;7.10;99.90
13944;DHT22;7044;53.286;8.534;2024-03-02T01:03:39;7.10;99.90
13944;DHT22;7044;53.286;8.534;2024-03-02T01:06:07;7.10;99.90
13944;DHT22;7044;53.286;8.534;2024-03-02T01:08:35;7.10;99.90
13944;DHT22;7044;53.286;8.534;2024-03-02T01:11:03;7.10;99.90
13944;DHT22;7044;53.286;8.534;2024-03-02T01:13:30;7.00;99.90
13944;DHT22;7044;53.286;8.534;2024-03-02T01:15:57;7.10;99.90
13944;DHT22;7044;53.286;8.534;2024-03-02T01:18:25;7.10;99.90
13944;DHT22;7044;53.286;8.534;2024-03-02T01:20:52;7.00;99.90
13944;DHT22;7044;53.286;8.534;2024-03-02T01:23:21;7.00;99.90
13944;DHT22;7044;53.286;8.534;2024-03-02T01:25:49;7.00;99.90
13944;DHT22;7044;53.286;8.534;2024-03-02T01:28:17;7.00;99.90
13944;DHT22;7044;53.286;8.534;2024-03-02T01:30:44;7.10;99.90
13944;DHT22;7044;53.286;8.534;2024-03-02T01:33:11;7.00;99.90
13944;DHT22;7044;53.286;8.534;2024-03-02T01:35:38;7.00;99.90
13944;DHT22;7044;53.286;8.534;2024-03-02T01:38:05;7.80;99.90
13944;DHT22;7044;53.286;8.534;2024-03-02T01:40:33;7.00;99.90
13944;DHT22;7044;53.286;8.534;2024-03-02T01:43:01;6.80;99.90
13944;DHT22;7044;53.286;8.534;2024-03-02T01:45:29;6.80;99.90
13944;DHT22;7044;53.286;8.534;2024-03-02T01:47:55;6.80;99.90
13944;DHT22;7044;53.286;8.534;2024-03-02T01:50:27;6.80;99.90
13944;DHT22;7044;53.286;8.534;2024-03-02T01:52:55;6.80;99.90
13944;DHT22;7044;53.286;8.534;2024-03-02T01:55:22;6.70;99.90
13944;DHT22;7044;53.286;8.534;2024-03-02T01:57:49;6.90;99.90
13944;DHT22;7044;53.286;8.534;2024-03-02T02:00:19;7.60;99.90
13944;DHT22;7044;53.286;8.534;2024-03-02T02:02:46;6.80;99.90
13944;DHT22;7044;53.286;8.534;2024-03-02T02:05:14;6.90;99.90
13944;DHT22;7044;53.286;8.534;2024-03-02T02:07:41;6.80;99.90
13944;DHT22;7044;53.286;8.534;2024-03-02T02:10:09;6.80;99.90
13944;DHT22;7044;53.286;8.534;2024-03-02T02:12:36;6.80;99.90
13944;DHT22;7044;53.286;8.534;2024-03-02T02:15:04;6.80;99.90
13944;DHT22;7044;53.286;8.534;2024-03-02T02:17:32;6.80;99.90
13944;DHT22;7044;53.286;8.534;2024-03-02T02:19:59;6.80;99.90
13944;DHT22;7044;53.286;8.534;2024-03-02T02:22:27;6.80;99.90
13944;DHT22;7044;53.286;8.534;2024-03-02T02:24:54;6.70;99.90
13944;DHT22;7044;53.286;8.534;2024-03-02T02:27:21;7.00;99.90
13944;DHT22;7044;53.286;8.534;2024-03-02T02:29:48;6.30;99.90
13944;DHT22;7044;53.286;8.534;2024-03-02T02:32:15;6.60;99.90
13944;DHT22;7044;53.286;8.534;2024-03-02T02:34:42;6.60;99.90
13944;DHT22;7044;53.286;8.534;2024-03-02T02:37:09;6.70;99.90
13944;DHT22;7044;53.286;8.534;2024-03-02T02:39:37;6.60;99.90
13944;DHT22;7044;53.286;8.534;2024-03-02T02:42:05;7.10;99.90
13944;DHT22;7044;53.286;8.534;2024-03-02T02:44:32;6.60;99.90
13944;DHT22;7044;53.286;8.534;2024-03-02T02:46:59;6.60;99.90
13944;DHT22;7044;53.286;8.534;2024-03-02T02:49:26;6.60;99.90
13944;DHT22;7044;53.286;8.534;2024-03-02T02:51:53;6.60;99.90
13944;DHT22;7044;53.286;8.534;2024-03-02T02:54:20;6.60;99.90
13944;DHT22;7044;53.286;8.534;2024-03-02T02:56:48;7.90;99.90
13944;DHT22;7044;53.286;8.534;2024-03-02T02:59:15;6.60;99.90
13944;DHT22;7044;53.286;8.534;2024-03-02T03:01:42;6.70;99.90
13944;DHT22;7044;53.286;8.534;2024-03-02T03:04:09;6.70;99.90
13944;DHT22;7044;53.286;8.534;2024-03-02T03:06:36;6.80;99.90
13944;DHT22;7044;53.286;8.534;2024-03-02T03:09:03;6.80;99.90
13944;DHT22;7044;53.286;8.534;2024-03-02T03:11:30;6.80;99.90
13944;DHT22;7044;53.286;8.534;2024-03-02T03:13:58;6.80;99.90
13944;DHT22;7044;53.286;8.534;2024-03-02T03:16:27;6.80;99.90
13944;DHT22;7044;53.286;8.534;2024-03-02T03:18:53;6.80;99.90
13944;DHT22;7044;53.286;8.534;2024-03-02T03:21:20;6.80;99.90
13944;DHT22;7044;53.286;8.534;2024-03-02T03:23:47;6.80;99.90
13944;DHT22;7044;53.286;8.534;2024-03-02T03:26:14;6.90;99.90
13944;DHT22;7044;53.286;8.534;2024-03-02T03:28:41;7.00;99.90
13944;DHT22;7044;53.286;8.534;2024-03-02T03:31:09;6.90;99.90
13944;DHT22;7044;53.286;8.534;2024-03-02T03:33:36;6.90;99.90
13944;DHT22;7044;53.286;8.534;2024-03-02T03:36:03;7.00;99.90
13944;DHT22;7044;53.286;8.534;2024-03-02T03:38:30;6.40;99.90
13944;DHT22;7044;53.286;8.534;2024-03-02T03:40:57;7.00;99.90
13944;DHT22;7044;53.286;8.534;2024-03-02T03:43:24;7.00;99.90
13944;DHT22;7044;53.286;8.534;2024-03-02T03:45:51;7.10;99.90
13944;DHT22;7044;53.286;8.534;2024-03-02T03:48:19;7.30;99.90
13944;DHT22;7044;53.286;8.534;2024-03-02T03:50:46;7.10;99.90
13944;DHT22;7044;53.286;8.534;2024-03-02T03:53:13;7.10;99.90
13944;DHT22;7044;53.286;8.534;2024-03-02T03:55:41;7.00;99.90
13944;DHT22;7044;53.286;8.534;2024-03-02T03:58:08;7.00;99.90
13944;DHT22;7044;53.286;8.534;2024-03-02T04:00:35;7.00;99.90
13944;DHT22;7044;53.286;8.534;2024-03-02T04:03:01;7.20;99.90
13944;DHT22;7044;53.286;8.534;2024-03-02T04:05:30;7.10;99.90
13944;DHT22;7044;53.286;8.534;2024-03-02T04:07:57;7.10;99.90
13944;DHT22;7044;53.286;8.534;2024-03-02T04:10:23;7.10;99.90
13944;DHT22;7044;53.286;8.534;2024-03-02T04:12:51;7.20;99.90
13944;DHT22;7044;53.286;8.534;2024-03-02T04:15:17;7.20;99.90
13944;DHT22;7044;53.286;8.534;2024-03-02T04:17:45;7.10;99.90
13944;DHT22;7044;53.286;8.534;2024-03-02T04:20:12;7.10;99.90
13944;DHT22;7044;53.286;8.534;2024-03-02T04:22:40;7.10;99.90
13944;DHT22;7044;53.286;8.534;2024-03-02T04:25:08;7.00;99.90
13944;DHT22;7044;53.286;8.534;2024-03-02T04:27:35;6.90;99.90
13944;DHT22;7044;53.286;8.534;2024-03-02T04:30:02;6.90;99.90
13944;DHT22;7044;53.286;8.534;2024-03-02T04:32:29;6.90;99.90
13944;DHT22;7044;53.286;8.534;2024-03-02T04:34:57;6.90;99.90
13944;DHT22;7044;53.286;8.534;2024-03-02T04:37:23;6.90;99.90
13944;DHT22;7044;53.286;8.534;2024-03-02T04:39:52;6.90;99.90
13944;DHT22;7044;53.286;8.534;2024-03-02T04:42:18;6.90;99.90
13944;DHT22;7044;53.286;8.534;2024-03-02T04:44:45;6.90;99.90
13944;DHT22;7044;53.286;8.534;2024-03-02T04:47:12;6.80;99.90
13944;DHT22;7044;53.286;8.534;2024-03-02T04:49:39;6.70;99.90
13944;DHT22;7044;53.286;8.534;2024-03-02T04:52:06;6.70;99.90
13944;DHT22;7044;53.286;8.534;2024-03-02T04:54:33;6.70;99.90
13944;DHT22;7044;53.286;8.534;2024-03-02T04:57:22;6.70;99.90
13944;DHT22;7044;53.286;8.534;2024-03-02T04:59:49;6.50;99.90
13944;DHT22;7044;53.286;8.534;2024-03-02T05:02:16;6.70;99.90
13944;DHT22;7044;53.286;8.534;2024-03-02T05:04:43;6.70;99.90
13944;DHT22;7044;53.286;8.534;2024-03-02T05:07:09;6.70;99.90
13944;DHT22;7044;53.286;8.534;2024-03-02T05:09:36;6.70;99.90
13944;DHT22;7044;53.286;8.534;2024-03-02T05:12:03;6.70;99.90
13944;DHT22;7044;53.286;8.534;2024-03-02T05:14:56;6.50;99.90
13944;DHT22;7044;53.286;8.534;2024-03-02T05:17:22;6.60;99.90
13944;DHT22;7044;53.286;8.534;2024-03-02T05:19:49;6.60;99.90
13944;DHT22;7044;53.286;8.534;2024-03-02T05:22:15;6.60;99.90
13944;DHT22;7044;53.286;8.534;2024-03-02T05:24:42;6.60;99.90
13944;DHT22;7044;53.286;8.534;2024-03-02T05:27:09;6.20;99.90
13944;DHT22;7044;53.286;8.534;2024-03-02T05:29:36;6.50;99.90
13944;DHT22;7044;53.286;8.534;2024-03-02T05:32:05;6.60;99.90
13944;DHT22;7044;53.286;8.534;2024-03-02T05:34:34;6.30;99.90
13944;DHT22;7044;53.286;8.534;2024-03-02T05:37:01;6.60;99.90
13944;DHT22;7044;53.286;8.534;2024-03-02T05:39:28;6.50;99.90
13944;DHT22;7044;53.286;8.534;2024-03-02T05:41:56;6.50;99.90
13944;DHT22;7044;53.286;8.534;2024-03-02T05:44:23;6.50;99.90
13944;DHT22;7044;53.286;8.534;2024-03-02T05:46:50;6.40;99.90
13944;DHT22;7044;53.286;8.534;2024-03-02T05:49:18;6.40;99.90
13944;DHT22;7044;53.286;8.534;2024-03-02T05:51:45;6.40;99.90
13944;DHT22;7044;53.286;8.534;2024-03-02T05:54:12;6.40;99.90
13944;DHT22;7044;53.286;8.534;2024-03-02T05:56:39;6.40;99.90
13944;DHT22;7044;53.286;8.534;2024-03-02T05:59:06;7.10;99.90
13944;DHT22;7044;53.286;8.534;2024-03-02T06:01:38;6.40;99.90
13944;DHT22;7044;53.286;8.534;2024-03-02T06:04:05;6.90;99.90
13944;DHT22;7044;53.286;8.534;2024-03-02T06:06:34;7.40;99.90
13944;DHT22;7044;53.286;8.534;2024-03-02T06:09:01;8.10;99.90
13944;DHT22;7044;53.286;8.534;2024-03-02T06:11:30;9.20;99.90
13944;DHT22;7044;53.286;8.534;2024-03-02T06:13:57;8.60;99.90
13944;DHT22;7044;53.286;8.534;2024-03-02T06:16:24;7.60;99.90
13944;DHT22;7044;53.286;8.534;2024-03-02T06:18:51;7.50;99.90
13944;DHT22;7044;53.286;8.534;2024-03-02T06:21:19;7.10;99.90
13944;DHT22;7044;53.286;8.534;2024-03-02T06:23:47;7.20;99.90
13944;DHT22;7044;53.286;8.534;2024-03-02T06:26:14;6.90;99.90
13944;DHT22;7044;53.286;8.534;2024-03-02T06:28:41;6.60;99.90
13944;DHT22;7044;53.286;8.534;2024-03-02T06:31:08;7.60;99.90
13944;DHT22;7044;53.286;8.534;2024-03-02T06:33:36;6.50;99.90
13944;DHT22;7044;53.286;8.534;2024-03-02T06:36:03;6.40;99.90
13944;DHT22;7044;53.286;8.534;2024-03-02T06:38:30;6.40;99.90
13944;DHT22;7044;53.286;8.534;2024-03-02T06:40:59;6.40;99.90
13944;DHT22;7044;53.286;8.534;2024-03-02T06:43:26;6.50;99.90
13944;DHT22;7044;53.286;8.534;2024-03-02T06:45:53;6.50;99.90
13944;DHT22;7044;53.286;8.534;2024-03-02T06:48:20;6.40;99.90
13944;DHT22;7044;53.286;8.534;2024-03-02T06:50:48;6.80;99.90
13944;DHT22;7044;53.286;8.534;2024-03-02T06:53:15;6.50;99.90
13944;DHT22;7044;53.286;8.534;2024-03-02T06:55:43;6.60;99.90
13944;DHT22;7044;53.286;8.534;2024-03-02T06:58:12;6.40;99.90
13944;DHT22;7044;53.286;8.534;2024-03-02T07:00:40;6.20;99.90
13944;DHT22;7044;53.286;8.534;2024-03-02T07:03:07;8.00;99.90
13944;DHT22;7044;53.286;8.534;2024-03-02T07:05:34;6.40;99.90
13944;DHT22;7044;53.286;8.534;2024-03-02T07:08:01;6.40;99.90
13944;DHT22;7044;53.286;8.534;2024-03-02T07:10:30;6.40;99.90
13944;DHT22;7044;53.286;8.534;2024-03-02T07:12:57;6.40;99.90
13944;DHT22;7044;53.286;8.534;2024-03-02T07:15:25;6.40;99.90
13944;DHT22;7044;53.286;8.534;2024-03-02T07:18:20;6.50;99.90
13944;DHT22;7044;53.286;8.534;2024-03-02T07:20:47;6.50;99.90
13944;DHT22;7044;53.286;8.534;2024-03-02T07:23:15;6.50;99.90
13944;DHT22;7044;53.286;8.534;2024-03-02T07:25:42;6.50;99.90
13944;DHT22;7044;53.286;8.534;2024-03-02T07:28:08;6.60;99.90
13944;DHT22;7044;53.286;8.534;2024-03-02T07:30:37;6.50;99.90
13944;DHT22;7044;53.286;8.534;2024-03-02T07:33:04;6.50;99.90
13944;DHT22;7044;53.286;8.534;2024-03-02T07:35:31;6.50;99.90
13944;DHT22;7044;53.286;8.534;2024-03-02T07:37:59;6.60;99.90
13944;DHT22;7044;53.286;8.534;2024-03-02T07:40:26;6.50;99.90
13944;DHT22;7044;53.286;8.534;2024-03-02T07:45:20;5.20;99.90
13944;DHT22;7044;53.286;8.534;2024-03-02T07:47:48;6.80;99.90
13944;DHT22;7044;53.286;8.534;2024-03-02T07:50:16;6.40;99.90
13944;DHT22;7044;53.286;8.534;2024-03-02T07:52:43;6.70;99.90
13944;DHT22;7044;53.286;8.534;2024-03-02T07:55:10;6.70;99.90
13944;DHT22;7044;53.286;8.534;2024-03-02T07:57:36;6.80;99.90
13944;DHT22;7044;53.286;8.534;2024-03-02T08:00:05;6.80;99.90
13944;DHT22;7044;53.286;8.534;2024-03-02T08:02:32;6.80;99.90
13944;DHT22;7044;53.286;8.534;2024-03-02T08:05:01;7.60;99.90
13944;DHT22;7044;53.286;8.534;2024-03-02T08:07:28;6.80;99.90
13944;DHT22;7044;53.286;8.534;2024-03-02T08:09:55;6.90;99.90
13944;DHT22;7044;53.286;8.534;2024-03-02T08:12:22;6.90;99.90
13944;DHT22;7044;53.286;8.534;2024-03-02T08:14:49;7.00;99.90
13944;DHT22;7044;53.286;8.534;2024-03-02T08:17:16;7.00;99.90
13944;DHT22;7044;53.286;8.534;2024-03-02T08:19:43;7.00;99.90
13944;DHT22;7044;53.286;8.534;2024-03-02T08:22:12;7.10;99.90
13944;DHT22;7044;53.286;8.534;2024-03-02T08:24:39;7.10;99.90
13944;DHT22;7044;53.286;8.534;2024-03-02T08:27:06;7.90;99.90
13944;DHT22;7044;53.286;8.534;2024-03-02T08:29:33;7.20;99.90
13944;DHT22;7044;53.286;8.534;2024-03-02T08:32:00;7.70;99.90
13944;DHT22;7044;53.286;8.534;2024-03-02T08:34:26;7.40;99.90
13944;DHT22;7044;53.286;8.534;2024-03-02T08:36:53;7.40;99.90
13944;DHT22;7044;53.286;8.534;2024-03-02T08:39:22;7.50;99.90
13944;DHT22;7044;53.286;8.534;2024-03-02T08:41:48;7.50;99.90
13944;DHT22;7044;53.286;8.534;2024-03-02T08:44:16;7.60;99.90
13944;DHT22;7044;53.286;8.534;2024-03-02T08:46:44;7.60;99.90
13944;DHT22;7044;53.286;8.534;2024-03-02T08:49:10;7.80;99.90
13944;DHT22;7044;53.286;8.534;2024-03-02T08:51:37;7.40;99.90
13944;DHT22;7044;53.286;8.534;2024-03-02T08:54:05;7.80;99.90
13944;DHT22;7044;53.286;8.534;2024-03-02T08:56:33;7.90;99.90
13944;DHT22;7044;53.286;8.534;2024-03-02T08:59:00;7.70;99.90
13944;DHT22;7044;53.286;8.534;2024-03-02T09:01:27;8.00;99.90
13944;DHT22;7044;53.286;8.534;2024-03-02T09:03:54;8.10;99.90
13944;DHT22;7044;53.286;8.534;2024-03-02T09:06:21;8.20;99.90
13944;DHT22;7044;53.286;8.534;2024-03-02T09:08:47;8.20;99.90
13944;DHT22;7044;53.286;8.534;2024-03-02T09:11:17;8.40;99.90
13944;DHT22;7044;53.286;8.534;2024-03-02T09:13:45;8.50;99.90
13944;DHT22;7044;53.286;8.534;2024-03-02T09:16:12;8.30;99.90
13944;DHT22;7044;53.286;8.534;2024-03-02T09:18:39;8.60;99.90
13944;DHT22;7044;53.286;8.534;2024-03-02T09:23:33;8.60;99.90
13944;DHT22;7044;53.286;8.534;2024-03-02T09:26:00;8.80;99.90
13944;DHT22;7044;53.286;8.534;2024-03-02T09:28:28;8.70;99.90
13944;DHT22;7044;53.286;8.534;2024-03-02T09:30:56;7.50;99.90
13944;DHT22;7044;53.286;8.534;2024-03-02T09:33:23;8.80;99.90
13944;DHT22;7044;53.286;8.534;2024-03-02T09:35:50;8.90;99.90
13944;DHT22;7044;53.286;8.534;2024-03-02T09:38:17;9.00;99.90
13944;DHT22;7044;53.286;8.534;2024-03-02T09:40:44;9.00;99.90
13944;DHT22;7044;53.286;8.534;2024-03-02T09:43:12;9.10;99.90
13944;DHT22;7044;53.286;8.534;2024-03-02T09:45:39;9.10;99.90
13944;DHT22;7044;53.286;8.534;2024-03-02T09:48:08;9.20;99.90
13944;DHT22;7044;53.286;8.534;2024-03-02T09:50:34;9.30;99.90
13944;DHT22;7044;53.286;8.534;2024-03-02T09:53:02;8.90;99.90
13944;DHT22;7044;53.286;8.534;2024-03-02T09:55:29;9.30;99.90
13944;DHT22;7044;53.286;8.534;2024-03-02T09:57:55;9.50;99.90
13944;DHT22;7044;53.286;8.534;2024-03-02T10:00:22;9.50;99.90
13944;DHT22;7044;53.286;8.534;2024-03-02T10:02:51;9.50;99.90
13944;DHT22;7044;53.286;8.534;2024-03-02T10:05:26;10.10;99.90
13944;DHT22;7044;53.286;8.534;2024-03-02T10:08:00;9.60;99.90
13944;DHT22;7044;53.286;8.534;2024-03-02T10:10:35;9.80;99.90
13944;DHT22;7044;53.286;8.534;2024-03-02T10:13:06;9.80;99.90
13944;DHT22;7044;53.286;8.534;2024-03-02T10:15:34;9.80;99.90
13944;DHT22;7044;53.286;8.534;2024-03-02T10:18:02;9.90;99.90
13944;DHT22;7044;53.286;8.534;2024-03-02T10:20:30;9.90;99.90
13944;DHT22;7044;53.286;8.534;2024-03-02T10:23:10;10.00;99.90
13944;DHT22;7044;53.286;8.534;2024-03-02T10:25:37;10.10;99.90
13944;DHT22;7044;53.286;8.534;2024-03-02T10:28:05;10.20;99.90
13944;DHT22;7044;53.286;8.534;2024-03-02T10:30:32;10.30;99.90
13944;DHT22;7044;53.286;8.534;2024-03-02T10:33:00;10.30;99.90
13944;DHT22;7044;53.286;8.534;2024-03-02T10:35:28;10.40;99.90
13944;DHT22;7044;53.286;8.534;2024-03-02T10:37:58;10.40;99.90
13944;DHT22;7044;53.286;8.534;2024-03-02T10:40:27;10.50;99.90
13944;DHT22;7044;53.286;8.534;2024-03-02T10:42:54;10.50;99.90
13944;DHT22;7044;53.286;8.534;2024-03-02T10:45:22;10.70;99.90
13944;DHT22;7044;53.286;8.534;2024-03-02T10:47:50;10.70;99.90
13944;DHT22;7044;53.286;8.534;2024-03-02T10:50:17;11.40;99.90
13944;DHT22;7044;53.286;8.534;2024-03-02T10:52:44;10.70;99.90
13944;DHT22;7044;53.286;8.534;2024-03-02T10:55:13;10.80;99.90
13944;DHT22;7044;53.286;8.534;2024-03-02T10:57:50;10.80;99.90
13944;DHT22;7044;53.286;8.534;2024-03-02T11:00:18;11.00;99.90
13944;DHT22;7044;53.286;8.534;2024-03-02T11:02:51;11.00;99.90
13944;DHT22;7044;53.286;8.534;2024-03-02T11:05:26;11.10;99.90
13944;DHT22;7044;53.286;8.534;2024-03-02T11:07:57;11.10;99.90
13944;DHT22;7044;53.286;8.534;2024-03-02T11:10:31;11.10;99.90
13944;DHT22;7044;53.286;8.534;2024-03-02T11:13:02;11.00;99.90
13944;DHT22;7044;53.286;8.534;2024-03-02T11:15:30;11.20;99.90
13944;DHT22;7044;53.286;8.534;2024-03-02T11:17:58;11.20;99.90
13944;DHT22;7044;53.286;8.534;2024-03-02T11:20:25;11.50;99.90
13944;DHT22;7044;53.286;8.534;2024-03-02T11:22:54;12.20;99.90
13944;DHT22;7044;53.286;8.534;2024-03-02T11:25:24;11.50;99.90
13944;DHT22;7044;53.286;8.534;2024-03-02T11:28:04;11.40;99.90
13944;DHT22;7044;53.286;8.534;2024-03-02T11:30:49;11.30;99.90
13944;DHT22;7044;53.286;8.534;2024-03-02T11:33:26;11.40;99.90
13944;DHT22;7044;53.286;8.534;2024-03-02T11:35:56;11.50;99.90
13944;DHT22;7044;53.286;8.534;2024-03-02T11:38:28;11.20;99.90
13944;DHT22;7044;53.286;8.534;2024-03-02T11:40:55;11.90;99.90
13944;DHT22;7044;53.286;8.534;2024-03-02T11:43:25;11.40;99.90
13944;DHT22;7044;53.286;8.534;2024-03-02T11:45:57;11.40;99.90
13944;DHT22;7044;53.286;8.534;2024-03-02T11:48:25;11.50;99.90
13944;DHT22;7044;53.286;8.534;2024-03-02T11:50:52;11.50;99.90
13944;DHT22;7044;53.286;8.534;2024-03-02T11:53:20;11.50;99.90
13944;DHT22;7044;53.286;8.534;2024-03-02T11:55:47;12.20;99.90
13944;DHT22;7044;53.286;8.534;2024-03-02T11:58:16;11.70;99.90
13944;DHT22;7044;53.286;8.534;2024-03-02T12:00:47;11.60;99.90
13944;DHT22;7044;53.286;8.534;2024-03-02T12:03:17;11.70;99.90
13944;DHT22;7044;53.286;8.534;2024-03-02T12:05:44;11.70;99.90
13944;DHT22;7044;53.286;8.534;2024-03-02T12:08:11;11.80;99.90
13944;DHT22;7044;53.286;8.534;2024-03-02T12:10:39;11.80;99.90
13944;DHT22;7044;53.286;8.534;2024-03-02T12:13:07;11.80;99.90
13944;DHT22;7044;53.286;8.534;2024-03-02T12:15:37;11.80;99.90
13944;DHT22;7044;53.286;8.534;2024-03-02T12:18:06;11.90;99.90
13944;DHT22;7044;53.286;8.534;2024-03-02T12:20:33;11.90;99.90
13944;DHT22;7044;53.286;8.534;2024-03-02T12:23:02;11.90;99.90
13944;DHT22;7044;53.286;8.534;2024-03-02T12:25:32;11.90;99.90
13944;DHT22;7044;53.286;8.534;2024-03-02T12:28:02;11.70;99.90
13944;DHT22;7044;53.286;8.534;2024-03-02T12:30:30;11.90;99.90
13944;DHT22;7044;53.286;8.534;2024-03-02T12:32:57;11.80;99.90
13944;DHT22;7044;53.286;8.534;2024-03-02T12:35:26;11.90;99.90
13944;DHT22;7044;53.286;8.534;2024-03-02T12:37:54;11.90;99.90
13944;DHT22;7044;53.286;8.534;2024-03-02T12:40:21;11.90;99.90
13944;DHT22;7044;53.286;8.534;2024-03-02T12:42:49;12.30;99.90
13944;DHT22;7044;53.286;8.534;2024-03-02T12:45:16;12.40;99.90
13944;DHT22;7044;53.286;8.534;2024-03-02T12:47:49;12.00;99.90
13944;DHT22;7044;53.286;8.534;2024-03-02T12:50:17;12.00;99.90
13944;DHT22;7044;53.286;8.534;2024-03-02T12:52:51;12.00;99.90
13944;DHT22;7044;53.286;8.534;2024-03-02T12:55:20;12.20;99.90
13944;DHT22;7044;53.286;8.534;2024-03-02T12:57:50;12.10;99.90
13944;DHT22;7044;53.286;8.534;2024-03-02T13:00:18;12.10;99.90
13944;DHT22;7044;53.286;8.534;2024-03-02T13:02:46;12.20;99.90
13944;DHT22;7044;53.286;8.534;2024-03-02T13:05:14;12.20;99.90
13944;DHT22;7044;53.286;8.534;2024-03-02T13:07:41;12.30;99.90
13944;DHT22;7044;53.286;8.534;2024-03-02T13:10:09;12.10;99.90
13944;DHT22;7044;53.286;8.534;2024-03-02T13:12:37;12.30;99.90
13944;DHT22;7044;53.286;8.534;2024-03-02T13:15:05;12.30;99.90
13944;DHT22;7044;53.286;8.534;2024-03-02T13:17:34;12.20;99.90
13944;DHT22;7044;53.286;8.534;2024-03-02T13:20:02;12.30;99.90
13944;DHT22;7044;53.286;8.534;2024-03-02T13:22:30;12.30;99.90
13944;DHT22;7044;53.286;8.534;2024-03-02T13:24:56;12.30;99.90
13944;DHT22;7044;53.286;8.534;2024-03-02T13:27:26;12.40;99.90
13944;DHT22;7044;53.286;8.534;2024-03-02T13:29:54;11.80;99.90
13944;DHT22;7044;53.286;8.534;2024-03-02T13:32:21;12.30;99.90
13944;DHT22;7044;53.286;8.534;2024-03-02T13:34:50;12.30;99.90
13944;DHT22;7044;53.286;8.534;2024-03-02T13:37:17;12.30;99.90
13944;DHT22;7044;53.286;8.534;2024-03-02T13:39:44;12.40;99.90
13944;DHT22;7044;53.286;8.534;2024-03-02T13:42:11;12.40;99.90
13944;DHT22;7044;53.286;8.534;2024-03-02T13:44:43;12.40;99.90
13944;DHT22;7044;53.286;8.534;2024-03-02T13:47:11;12.50;99.90
13944;DHT22;7044;53.286;8.534;2024-03-02T13:49:38;12.50;99.90
13944;DHT22;7044;53.286;8.534;2024-03-02T13:52:09;12.60;99.90
13944;DHT22;7044;53.286;8.534;2024-03-02T13:54:39;12.50;99.90
13944;DHT22;7044;53.286;8.534;2024-03-02T13:57:06;12.50;99.90
13944;DHT22;7044;53.286;8.534;2024-03-02T13:59:33;12.50;99.90
13944;DHT22;7044;53.286;8.534;2024-03-02T14:02:01;13.50;99.90
13944;DHT22;7044;53.286;8.534;2024-03-02T14:04:30;13.40;99.90
13944;DHT22;7044;53.286;8.534;2024-03-02T14:06:57;13.40;99.90
13944;DHT22;7044;53.286;8.534;2024-03-02T14:09:23;13.50;99.90
13944;DHT22;7044;53.286;8.534;2024-03-02T14:11:51;12.90;99.90
13944;DHT22;7044;53.286;8.534;2024-03-02T14:14:18;13.40;99.90
13944;DHT22;7044;53.286;8.534;2024-03-02T14:16:45;12.80;99.90
13944;DHT22;7044;53.286;8.534;2024-03-02T14:19:13;12.60;99.90
13944;DHT22;7044;53.286;8.534;2024-03-02T14:21:40;12.70;99.90
13944;DHT22;7044;53.286;8.534;2024-03-02T14:24:08;12.60;99.90
13944;DHT22;7044;53.286;8.534;2024-03-02T14:26:35;12.80;99.90
13944;DHT22;7044;53.286;8.534;2024-03-02T14:29:02;12.80;99.90
13944;DHT22;7044;53.286;8.534;2024-03-02T14:31:29;12.70;99.90
13944;DHT22;7044;53.286;8.534;2024-03-02T14:33:56;12.70;99.90
13944;DHT22;7044;53.286;8.534;2024-03-02T14:36:25;12.60;99.90
13944;DHT22;7044;53.286;8.534;2024-03-02T14:38:53;12.60;99.90
13944;DHT22;7044;53.286;8.534;2024-03-02T14:41:20;12.60;99.90
13944;DHT22;7044;53.286;8.534;2024-03-02T14:43:47;12.80;99.90
13944;DHT22;7044;53.286;8.534;2024-03-02T14:46:15;12.60;99.90
13944;DHT22;7044;53.286;8.534;2024-03-02T14:48:44;12.50;99.90
13944;DHT22;7044;53.286;8.534;2024-03-02T14:51:12;12.50;99.90
13944;DHT22;7044;53.286;8.534;2024-03-02T14:53:41;12.60;99.90
13944;DHT22;7044;53.286;8.534;2024-03-02T14:56:08;12.60;99.90
13944;DHT22;7044;53.286;8.534;2024-03-02T14:58:35;12.60;99.90
13944;DHT22;7044;53.286;8.534;2024-03-02T15:01:03;12.60;99.90
13944;DHT22;7044;53.286;8.534;2024-03-02T15:03:30;12.60;99.90
13944;DHT22;7044;53.286;8.534;2024-03-02T15:05:57;12.60;99.90
13944;DHT22;7044;53.286;8.534;2024-03-02T15:08:24;12.60;99.90
13944;DHT22;7044;53.286;8.534;2024-03-02T15:10:52;12.50;99.90
13944;DHT22;7044;53.286;8.534;2024-03-02T15:13:21;12.60;99.90
13944;DHT22;7044;53.286;8.534;2024-03-02T15:15:48;12.50;99.90
13944;DHT22;7044;53.286;8.534;2024-03-02T15:18:15;12.50;99.90
13944;DHT22;7044;53.286;8.534;2024-03-02T15:20:42;12.50;99.90
13944;DHT22;7044;53.286;8.534;2024-03-02T15:23:09;12.50;99.90
13944;DHT22;7044;53.286;8.534;2024-03-02T15:25:36;12.50;99.90
13944;DHT22;7044;53.286;8.534;2024-03-02T15:28:05;12.50;99.90
13944;DHT22;7044;53.286;8.534;2024-03-02T15:32:59;12.40;99.90
13944;DHT22;7044;53.286;8.534;2024-03-02T15:35:26;12.40;99.90
13944;DHT22;7044;53.286;8.534;2024-03-02T15:37:53;12.30;99.90
13944;DHT22;7044;53.286;8.534;2024-03-02T15:40:20;12.40;99.90
13944;DHT22;7044;53.286;8.534;2024-03-02T15:42:47;12.40;99.90
13944;DHT22;7044;53.286;8.534;2024-03-02T15:45:15;12.40;99.90
13944;DHT22;7044;53.286;8.534;2024-03-02T15:47:42;12.40;99.90
13944;DHT22;7044;53.286;8.534;2024-03-02T15:50:09;12.40;99.90
13944;DHT22;7044;53.286;8.534;2024-03-02T15:52:37;12.40;99.90
13944;DHT22;7044;53.286;8.534;2024-03-02T15:55:04;12.40;99.90
13944;DHT22;7044;53.286;8.534;2024-03-02T15:57:31;12.30;99.90
13944;DHT22;7044;53.286;8.534;2024-03-02T15:59:58;12.20;99.90
13944;DHT22;7044;53.286;8.534;2024-03-02T16:02:27;12.20;99.90
13944;DHT22;7044;53.286;8.534;2024-03-02T16:04:55;12.20;99.90
13944;DHT22;7044;53.286;8.534;2024-03-02T16:07:22;12.20;99.90